首页
METAR-TAF:

METAR-TAF

机场 :

西哥奈拉基地

Sigonella, 意大利

纬度: 37-24N, 经度: 014-55E, 海拔: 22米

当前天气观测

该预报发布于59分钟前的06:55 UTC
风速5节,风向西
温度 4°C
湿度 100%
气压 1030 hPa
能見度: 8000

METAR: LICZ 170655Z 26005KT 8000 NSC 04/04 Q1030 RMK FEW FEW150 VIS MIN 8000 WIND THR28 25005KT WIND THR10 25005KT A3043 BLU

时间: 08:54 (07:54 UTC)

预报

该预报发布于2小时和54分钟前的05:00 UTC
预报有效从17日的 06点(UTC)到 18日的 06点(UTC)
风速5节,风向西转西南
能见度10公里或以上
1500米以下无云,无积雨云
短暂存在
从 17日的 14点(UTC)到 17日的 19点(UTC)
风速5节,风向东转东北

TAF: LICZ 170500Z 1706/1806 25005KT CAVOK TEMPO 1714/1719 07005KT

超过4000个机场的气象观测和天气预报(METAR&TAF报告)。

可查询的气象台以黄色和红色小点在地图上表示。

将鼠标移到小点上方,可查看气象台名称。

然后点击查看天气观测和预报。

如需切换地图:点击带黑十字的绿色按钮放大地图;点击带横线的绿色按钮缩小地图;或者点击绿色箭头查看邻近地区的地图。


METAR-TAF: